createdAt,value
2018-05-14T00:02:30.149Z,70.25
2018-05-14T00:05:03.080Z,72.25
2018-05-14T00:07:35.361Z,72.75
2018-05-14T00:10:07.561Z,70.50
2018-05-14T00:12:45.093Z,69.25
2018-05-14T00:15:18.460Z,70.25
2018-05-14T00:17:48.887Z,73.00
2018-05-14T00:20:19.512Z,70.75
2018-05-14T00:22:51.256Z,72.00
2018-05-14T00:25:22.366Z,68.50
2018-05-14T00:27:53.749Z,68.25
2018-05-14T00:30:27.589Z,73.25
2018-05-14T00:33:00.559Z,68.75
2018-05-14T00:35:31.313Z,67.25
2018-05-14T00:38:03.771Z,71.25
2018-05-14T00:40:36.158Z,72.25
2018-05-14T00:45:39.832Z,72.00
2018-05-14T00:48:10.734Z,73.25
2018-05-14T00:51:01.978Z,70.50
2018-05-14T00:53:33.978Z,75.00
2018-05-14T00:56:07.333Z,77.75
2018-05-14T00:58:40.092Z,73.50
2018-05-14T01:01:10.660Z,76.00
2018-05-14T01:03:46.144Z,82.25
2018-05-14T01:06:16.801Z,67.75
2018-05-14T01:08:47.416Z,76.50
2018-05-14T01:11:17.859Z,79.75
2018-05-14T01:13:48.294Z,70.75
2018-05-14T01:16:19.418Z,71.25
2018-05-14T01:18:49.814Z,83.25
2018-05-14T01:21:20.634Z,78.75
2018-05-14T01:23:52.182Z,78.50
2018-05-14T01:26:23.344Z,78.75
2018-05-14T01:28:53.663Z,77.00
2018-05-14T01:31:25.113Z,78.00
2018-05-14T01:33:56.194Z,75.00
2018-05-14T01:36:26.746Z,79.50
2018-05-14T01:38:57.075Z,74.00
2018-05-14T01:41:27.434Z,72.75
2018-05-14T01:43:58.868Z,77.75
2018-05-14T01:46:30.247Z,77.50
2018-05-14T01:49:00.725Z,79.00
2018-05-14T01:51:37.533Z,73.75
2018-05-14T01:54:08.037Z,75.50
2018-05-14T01:56:38.581Z,68.25
2018-05-14T01:59:08.957Z,67.75
2018-05-14T02:01:40.053Z,71.75
2018-05-14T02:04:10.441Z,72.50
2018-05-14T02:06:43.185Z,77.25
2018-05-14T02:09:13.855Z,75.50
2018-05-14T02:11:45.796Z,74.25
2018-05-14T02:14:19.783Z,71.25
2018-05-14T02:16:57.874Z,70.00
2018-05-14T02:19:30.402Z,71.50
2018-05-14T02:22:01.927Z,67.75
2018-05-14T02:24:32.938Z,73.00
2018-05-14T02:27:06.294Z,67.00
2018-05-14T02:29:38.839Z,73.75
2018-05-14T02:32:12.401Z,73.75
2018-05-14T02:37:25.280Z,68.50
2018-05-14T02:39:59.619Z,66.50
2018-05-14T02:42:32.592Z,66.75
2018-05-14T02:45:08.386Z,67.25
2018-05-14T02:47:42.249Z,65.00
2018-05-14T02:50:13.250Z,66.50
2018-05-14T02:52:44.860Z,65.75
2018-05-14T02:55:16.262Z,64.50
2018-05-14T02:57:47.312Z,64.50
2018-05-14T03:00:24.064Z,62.75
2018-05-14T03:02:55.668Z,63.75
2018-05-14T03:05:28.151Z,70.50
2018-05-14T03:08:36.540Z,67.75
2018-05-14T03:11:06.971Z,64.50
2018-05-14T03:16:25.658Z,63.00
2018-05-14T03:18:57.268Z,62.00
2018-05-14T03:21:27.546Z,58.00
2018-05-14T03:23:58.406Z,56.25
2018-05-14T03:26:30.326Z,57.75
2018-05-14T03:29:01.557Z,56.00
2018-05-14T03:31:33.606Z,55.50
2018-05-14T03:34:05.729Z,56.00
2018-05-14T03:36:36.276Z,51.50
2018-05-14T03:39:08.002Z,53.00
2018-05-14T03:41:39.160Z,53.00
2018-05-14T03:44:09.997Z,55.00
2018-05-14T03:49:26.422Z,55.00
2018-05-14T03:51:57.529Z,54.00
2018-05-14T03:54:27.995Z,53.00
2018-05-14T03:56:58.296Z,53.75
2018-05-14T03:59:39.670Z,55.50
2018-05-14T04:02:18.867Z,56.50
2018-05-14T04:05:00.424Z,58.00
2018-05-14T04:07:30.775Z,56.75
2018-05-14T04:10:01.251Z,59.00
2018-05-14T04:12:31.624Z,57.50
2018-05-14T04:15:04.414Z,57.75
2018-05-14T04:17:35.373Z,54.00
2018-05-14T04:20:06.377Z,55.75
2018-05-14T04:22:36.988Z,57.50
2018-05-14T04:25:07.618Z,59.50
2018-05-14T04:27:38.006Z,54.75
2018-05-14T04:30:08.734Z,56.00
2018-05-14T04:32:39.509Z,56.25
2018-05-14T04:35:11.223Z,57.25
2018-05-14T04:37:41.825Z,58.50
2018-05-14T04:40:12.323Z,58.00
2018-05-14T04:42:43.367Z,59.50
2018-05-14T04:45:16.871Z,63.00
2018-05-14T04:47:48.504Z,64.25
2018-05-14T04:50:20.457Z,62.50
2018-05-14T04:52:52.079Z,61.50
2018-05-14T04:55:22.786Z,64.00
2018-05-14T04:57:54.355Z,61.25
2018-05-14T05:00:25.091Z,66.75
2018-05-14T05:02:56.495Z,62.50
2018-05-14T05:05:27.077Z,62.25
2018-05-14T05:07:58.310Z,64.75
2018-05-14T05:10:30.941Z,65.25
2018-05-14T05:13:01.733Z,65.25
2018-05-14T05:15:32.467Z,65.75
2018-05-14T05:18:03.392Z,65.75
2018-05-14T05:20:33.882Z,62.00
2018-05-14T05:23:14.715Z,65.50
2018-05-14T05:25:45.595Z,66.00
2018-05-14T05:28:16.210Z,67.25
2018-05-14T05:31:00.282Z,67.00
2018-05-14T05:33:32.741Z,66.50
2018-05-14T05:36:03.796Z,65.75
2018-05-14T05:38:37.255Z,63.75
2018-05-14T05:41:08.006Z,64.00
2018-05-14T05:43:40.092Z,66.50
2018-05-14T05:46:17.564Z,67.50
2018-05-14T05:48:52.006Z,67.50
2018-05-14T05:51:24.417Z,66.75
2018-05-14T05:53:56.994Z,63.00
2018-05-14T05:56:28.398Z,66.00
2018-05-14T05:58:59.789Z,65.50
2018-05-14T06:01:31.422Z,69.75
2018-05-14T06:04:02.237Z,68.50
2018-05-14T06:06:34.400Z,68.50
2018-05-14T06:09:05.792Z,65.25
2018-05-14T06:11:37.422Z,62.50
2018-05-14T06:14:08.494Z,65.00
2018-05-14T06:16:46.186Z,63.75
2018-05-14T06:19:31.074Z,64.25
2018-05-14T06:22:02.459Z,60.00
2018-05-14T06:24:39.727Z,61.50
2018-05-14T06:27:12.306Z,61.50
2018-05-14T06:29:43.396Z,64.00
2018-05-14T06:32:17.147Z,60.25
2018-05-14T06:34:54.914Z,60.00
2018-05-14T06:37:25.677Z,60.00
2018-05-14T06:39:57.261Z,59.75
2018-05-14T06:42:28.611Z,61.25
2018-05-14T06:44:59.896Z,61.75
2018-05-14T06:47:34.442Z,62.75
2018-05-14T06:50:05.731Z,60.25
2018-05-14T06:52:37.486Z,62.75
2018-05-14T06:55:08.395Z,58.00
2018-05-14T06:57:38.805Z,57.50
2018-05-14T07:00:09.601Z,62.00
2018-05-14T07:02:42.649Z,56.50
2018-05-14T07:05:18.166Z,62.50
2018-05-14T07:07:50.241Z,59.00
2018-05-14T07:10:20.551Z,56.50
2018-05-14T07:13:01.494Z,59.75
2018-05-14T07:15:36.745Z,57.75
2018-05-14T07:18:11.872Z,59.50
2018-05-14T07:20:48.015Z,58.25
2018-05-14T07:23:19.073Z,59.75
2018-05-14T07:26:01.496Z,57.50
2018-05-14T07:28:31.799Z,59.00
2018-05-14T07:31:02.902Z,59.50
2018-05-14T07:33:35.897Z,61.25
2018-05-14T07:36:11.790Z,59.75
2018-05-14T07:41:42.553Z,59.25
2018-05-14T07:44:13.910Z,56.50
2018-05-14T07:46:46.031Z,58.75
2018-05-14T07:49:16.429Z,54.75
2018-05-14T07:52:00.315Z,58.75
2018-05-14T07:54:35.134Z,57.50
2018-05-14T07:57:14.018Z,54.50
2018-05-14T07:59:48.895Z,56.00
2018-05-14T08:02:23.707Z,57.50
2018-05-14T08:04:55.709Z,57.00
2018-05-14T08:07:27.430Z,54.00
2018-05-14T08:09:58.113Z,54.75
2018-05-14T08:12:31.339Z,58.00
2018-05-14T08:15:16.290Z,54.00
2018-05-14T08:17:47.794Z,53.50
2018-05-14T08:20:19.517Z,55.50
2018-05-14T08:22:56.232Z,52.25
2018-05-14T08:25:27.380Z,54.75
2018-05-14T08:27:58.882Z,52.00
2018-05-14T08:30:30.130Z,52.25
2018-05-14T08:33:01.255Z,49.50
2018-05-14T08:35:32.705Z,53.75
2018-05-14T08:38:04.097Z,53.00
2018-05-14T08:40:34.703Z,50.50
2018-05-14T08:43:07.267Z,52.00
2018-05-14T08:45:39.196Z,51.50
2018-05-14T08:48:14.307Z,52.50
2018-05-14T08:50:45.103Z,52.75
2018-05-14T08:53:16.377Z,50.50
2018-05-14T08:55:48.464Z,50.50
2018-05-14T08:58:22.010Z,51.00
2018-05-14T09:00:57.693Z,50.50
2018-05-14T09:03:28.891Z,49.75
2018-05-14T09:06:05.223Z,50.75
2018-05-14T09:08:35.710Z,50.75
2018-05-14T09:11:09.015Z,48.25
2018-05-14T09:13:39.473Z,49.75
2018-05-14T09:16:11.377Z,50.25
2018-05-14T09:18:52.114Z,52.00
2018-05-14T09:21:26.539Z,47.25
2018-05-14T09:24:00.417Z,50.00
2018-05-14T09:26:34.027Z,48.75
2018-05-14T09:29:08.550Z,49.00
2018-05-14T09:31:43.547Z,48.75
2018-05-14T09:34:15.883Z,49.25
2018-05-14T09:36:48.703Z,47.75
2018-05-14T09:42:00.414Z,48.50
2018-05-14T09:44:33.127Z,47.50
2018-05-14T09:47:04.763Z,48.00
2018-05-14T09:49:42.874Z,46.00
2018-05-14T09:52:27.500Z,48.25
2018-05-14T09:55:03.980Z,48.25
2018-05-14T09:57:39.379Z,47.50
2018-05-14T10:00:30.470Z,45.75
2018-05-14T10:03:02.567Z,47.00
2018-05-14T10:05:33.201Z,46.75
2018-05-14T10:08:05.196Z,45.75
2018-05-14T10:10:39.467Z,46.00
2018-05-14T10:13:16.161Z,48.00
2018-05-14T10:16:09.592Z,47.00
2018-05-14T10:18:45.031Z,46.50
2018-05-14T10:21:16.539Z,45.75
2018-05-14T10:23:47.857Z,45.00
2018-05-14T10:26:20.386Z,43.25
2018-05-14T10:28:57.355Z,47.00
2018-05-14T10:31:34.624Z,44.50
2018-05-14T10:34:05.152Z,45.75
2018-05-14T10:36:48.235Z,43.00
2018-05-14T10:39:22.324Z,44.00
2018-05-14T10:41:58.439Z,44.75
2018-05-14T10:44:29.463Z,43.00
2018-05-14T10:47:07.313Z,43.50
2018-05-14T10:49:43.024Z,45.50
2018-05-14T10:52:14.264Z,46.00
2018-05-14T10:54:47.992Z,43.00
2018-05-14T10:57:23.334Z,44.50
2018-05-14T10:59:58.704Z,42.75
2018-05-14T11:02:29.903Z,43.00
2018-05-14T11:05:06.030Z,44.00
2018-05-14T11:07:41.289Z,42.50
2018-05-14T11:10:14.239Z,42.00
2018-05-14T11:12:45.811Z,41.25
2018-05-14T11:15:17.104Z,41.00
2018-05-14T11:17:48.146Z,42.50
2018-05-14T11:20:18.480Z,41.75
2018-05-14T11:22:50.963Z,41.00
2018-05-14T11:25:21.436Z,41.00
2018-05-14T11:27:52.051Z,40.75
2018-05-14T11:30:24.130Z,42.00
2018-05-14T11:33:01.510Z,41.25
2018-05-14T11:35:42.810Z,40.00
2018-05-14T11:38:20.436Z,39.00
2018-05-14T11:40:54.101Z,38.75
2018-05-14T11:46:11.321Z,39.00
2018-05-14T11:48:49.699Z,36.00
2018-05-14T11:51:20.469Z,36.75
2018-05-14T11:53:51.594Z,35.25
2018-05-14T11:56:25.559Z,37.25
2018-05-14T11:58:58.233Z,35.75
2018-05-14T12:01:30.762Z,36.75
2018-05-14T12:04:09.788Z,37.00
2018-05-14T12:06:44.977Z,38.75
2018-05-14T12:09:20.301Z,37.25
2018-05-14T12:11:54.195Z,36.00
2018-05-14T12:14:27.697Z,35.00
2018-05-14T12:17:02.073Z,39.00
2018-05-14T12:19:35.962Z,35.50
2018-05-14T12:22:08.346Z,36.75
2018-05-14T12:24:41.856Z,34.50
2018-05-14T12:27:15.598Z,35.25
2018-05-14T12:29:55.464Z,34.00
2018-05-14T12:32:32.743Z,38.00
2018-05-14T12:35:07.283Z,34.50
2018-05-14T12:37:38.214Z,33.25
2018-05-14T12:40:22.997Z,35.00
2018-05-14T12:42:57.417Z,36.00
2018-05-14T12:45:29.072Z,31.50
2018-05-14T12:47:59.970Z,34.00
2018-05-14T12:50:31.596Z,32.00
2018-05-14T12:53:03.257Z,31.50
2018-05-14T12:55:34.693Z,32.00
2018-05-14T12:58:05.402Z,30.75
2018-05-14T13:00:35.799Z,33.25
2018-05-14T13:03:08.403Z,33.75
2018-05-14T13:05:49.197Z,30.00
2018-05-14T13:08:22.020Z,30.25
2018-05-14T13:11:15.488Z,30.75
2018-05-14T13:13:47.410Z,31.50
2018-05-14T13:16:22.637Z,31.50
2018-05-14T13:19:03.094Z,29.25
2018-05-14T13:21:34.868Z,28.50
2018-05-14T13:24:18.210Z,29.00
2018-05-14T13:27:10.768Z,29.75
2018-05-14T13:29:48.255Z,27.75
2018-05-14T13:32:23.780Z,27.75
2018-05-14T13:35:29.384Z,26.25
2018-05-14T13:38:00.101Z,25.00
2018-05-14T13:40:57.594Z,25.75
2018-05-14T13:43:28.869Z,24.75
2018-05-14T13:46:05.334Z,26.50
2018-05-14T13:48:39.714Z,25.00
2018-05-14T13:51:15.629Z,25.50
2018-05-14T13:53:48.317Z,26.00
2018-05-14T13:56:18.714Z,22.75
2018-05-14T13:59:09.607Z,25.50
2018-05-14T14:01:43.612Z,22.50
2018-05-14T14:04:22.781Z,22.00
2018-05-14T14:07:02.544Z,21.75
2018-05-14T14:09:47.357Z,22.00
2018-05-14T14:12:21.123Z,22.75
2018-05-14T14:14:53.564Z,21.00
2018-05-14T14:17:25.680Z,19.50
2018-05-14T14:19:58.574Z,20.75
2018-05-14T14:22:30.598Z,23.25
2018-05-14T14:25:02.503Z,23.25
2018-05-14T14:27:35.513Z,25.50
2018-05-14T14:30:09.245Z,23.75
2018-05-14T14:32:55.069Z,23.75
2018-05-14T14:35:35.270Z,22.00
2018-05-14T14:38:08.469Z,22.00
2018-05-14T14:40:40.069Z,21.00
2018-05-14T14:43:12.398Z,19.50
2018-05-14T14:45:43.676Z,19.50
2018-05-14T14:48:19.100Z,20.00
2018-05-14T14:50:51.628Z,18.25
2018-05-14T14:53:26.511Z,17.75
2018-05-14T14:55:58.600Z,18.00
2018-05-14T14:58:29.491Z,16.00
2018-05-14T15:03:43.983Z,16.00
2018-05-14T15:06:16.671Z,16.00
2018-05-14T15:08:50.254Z,16.50
2018-05-14T15:11:23.931Z,18.25
2018-05-14T15:13:56.561Z,16.50
2018-05-14T15:16:36.716Z,15.50
2018-05-14T15:19:12.760Z,17.00
2018-05-14T15:21:45.871Z,17.00
2018-05-14T15:24:27.599Z,17.25
2018-05-14T15:27:01.620Z,16.00
2018-05-14T15:29:41.219Z,18.25
2018-05-14T15:32:22.588Z,15.25
2018-05-14T15:34:53.924Z,17.25
2018-05-14T15:37:24.724Z,17.00
2018-05-14T15:39:57.384Z,14.50
2018-05-14T15:45:14.321Z,15.75
2018-05-14T15:47:48.459Z,17.75
2018-05-14T15:50:40.687Z,17.00
2018-05-14T15:53:20.637Z,15.50
2018-05-14T15:55:54.386Z,16.25
2018-05-14T16:01:28.216Z,16.00
2018-05-14T16:04:00.396Z,18.00
2018-05-14T16:06:32.134Z,15.75
2018-05-14T16:09:05.064Z,16.75
2018-05-14T16:11:39.380Z,18.00
2018-05-14T16:14:25.522Z,17.75
2018-05-14T16:17:05.275Z,15.25
2018-05-14T16:19:38.112Z,18.25
2018-05-14T16:22:10.696Z,16.00
2018-05-14T16:24:41.853Z,18.75
2018-05-14T16:27:25.123Z,17.00
2018-05-14T16:29:57.964Z,18.50
2018-05-14T16:32:35.770Z,17.50
2018-05-14T16:38:36.998Z,16.50
2018-05-14T16:41:22.700Z,16.75
2018-05-14T16:43:59.270Z,17.50
2018-05-14T16:46:32.368Z,17.00
2018-05-14T16:51:57.445Z,17.75
2018-05-14T16:54:46.986Z,17.00
2018-05-14T17:03:17.728Z,17.50
2018-05-14T17:06:02.867Z,16.00
2018-05-14T17:08:37.260Z,15.75
2018-05-14T17:11:13.037Z,17.25
2018-05-14T17:13:47.449Z,17.75
2018-05-14T17:16:22.010Z,16.25
2018-05-14T17:18:56.583Z,16.25
2018-05-14T17:21:29.468Z,17.75
2018-05-14T17:24:16.960Z,18.50
2018-05-14T17:26:59.850Z,15.00
2018-05-14T17:29:33.978Z,18.75
2018-05-14T17:32:12.132Z,17.50
2018-05-14T17:34:50.003Z,19.00
2018-05-14T17:37:28.434Z,18.25
2018-05-14T17:40:08.242Z,16.50
2018-05-14T17:42:43.826Z,16.75
2018-05-14T17:45:30.230Z,15.50
2018-05-14T17:48:17.611Z,16.50
2018-05-14T17:50:59.334Z,16.25
2018-05-14T17:53:33.303Z,17.75
2018-05-14T17:56:07.765Z,18.00
2018-05-14T17:58:44.134Z,18.00
2018-05-14T18:01:31.819Z,17.50
2018-05-14T18:04:09.378Z,18.25
2018-05-14T18:06:44.178Z,16.75
2018-05-14T18:09:34.489Z,16.25
2018-05-14T18:12:35.784Z,18.25
2018-05-14T18:15:23.976Z,17.50
2018-05-14T18:18:10.445Z,16.50
2018-05-14T18:20:48.953Z,16.75
2018-05-14T18:23:36.685Z,20.25
2018-05-14T18:26:16.561Z,18.50
2018-05-14T18:28:52.479Z,17.50
2018-05-14T18:31:35.105Z,18.00
2018-05-14T18:34:12.921Z,19.00
2018-05-14T18:36:47.948Z,17.75
2018-05-14T18:39:23.618Z,18.75
2018-05-14T18:41:59.092Z,16.25
2018-05-14T18:44:46.334Z,17.75
2018-05-14T18:50:10.468Z,17.50
2018-05-14T18:56:41.334Z,19.00
2018-05-14T18:59:29.755Z,16.00
2018-05-14T19:02:11.620Z,18.50
2018-05-14T19:04:52.865Z,18.50
2018-05-14T19:10:27.374Z,17.75
2018-05-14T19:17:05.932Z,18.00
2018-05-14T19:19:44.478Z,18.25
2018-05-14T19:22:23.887Z,19.25
2018-05-14T19:25:00.481Z,18.50
2018-05-14T19:27:46.883Z,20.75
2018-05-14T19:30:38.333Z,19.50
2018-05-14T19:33:27.982Z,20.00
2018-05-14T19:36:13.901Z,19.75
2018-05-14T19:38:52.125Z,22.00
2018-05-14T19:41:36.560Z,19.75
2018-05-14T19:44:15.301Z,22.00
2018-05-14T19:46:52.261Z,23.25
2018-05-14T19:49:29.506Z,20.75
2018-05-14T19:52:04.924Z,21.00
2018-05-14T20:00:21.397Z,21.75
2018-05-14T20:02:58.362Z,21.75
2018-05-14T20:05:33.200Z,21.50
2018-05-14T20:08:09.702Z,20.50
2018-05-14T20:10:54.153Z,20.75
2018-05-14T20:13:32.654Z,23.75
2018-05-14T20:16:17.517Z,25.25
2018-05-14T20:18:51.225Z,22.75
2018-05-14T20:21:29.061Z,22.50
2018-05-14T20:24:28.270Z,24.25
2018-05-14T20:27:01.762Z,24.00
2018-05-14T20:29:35.101Z,22.75
2018-05-14T20:32:08.787Z,29.25
2018-05-14T20:34:46.360Z,23.00
2018-05-14T20:37:44.084Z,27.00
2018-05-14T20:40:24.053Z,23.50
2018-05-14T20:43:16.660Z,22.00
2018-05-14T20:46:03.881Z,20.75
2018-05-14T20:48:55.174Z,23.50
2018-05-14T20:51:33.757Z,27.25
2018-05-14T20:54:16.637Z,23.75
2018-05-14T20:57:03.555Z,23.50
2018-05-14T20:59:45.388Z,22.00
2018-05-14T21:02:17.549Z,22.00
2018-05-14T21:04:51.851Z,22.75
2018-05-14T21:07:23.740Z,20.50
2018-05-14T21:09:56.538Z,23.25
2018-05-14T21:12:33.442Z,22.75
2018-05-14T21:15:23.549Z,21.75
2018-05-14T21:17:58.734Z,22.50
2018-05-14T21:23:19.036Z,22.25
2018-05-14T21:25:55.682Z,22.50
2018-05-14T21:28:42.020Z,22.75
2018-05-14T21:31:20.545Z,24.25
2018-05-14T21:34:06.615Z,21.50
2018-05-14T21:37:00.107Z,23.00
2018-05-14T21:39:41.476Z,22.00
2018-05-14T21:42:23.323Z,22.75
2018-05-14T21:44:59.978Z,22.00
2018-05-14T21:47:40.225Z,23.25
2018-05-14T21:50:17.665Z,22.00
2018-05-14T21:52:57.480Z,20.00
2018-05-14T21:55:35.489Z,22.00
2018-05-14T21:58:24.468Z,23.00
2018-05-14T22:01:00.409Z,21.00
2018-05-14T22:06:19.186Z,21.00
2018-05-14T22:08:51.882Z,23.00
2018-05-14T22:11:24.671Z,21.25
2018-05-14T22:13:57.178Z,21.50
2018-05-14T22:16:42.444Z,23.00
2018-05-14T22:19:13.950Z,21.50
2018-05-14T22:21:47.583Z,19.25
2018-05-14T22:24:18.890Z,21.00
2018-05-14T22:26:50.636Z,22.00
2018-05-14T22:29:35.096Z,22.50
2018-05-14T22:32:19.912Z,22.50
2018-05-14T22:34:51.621Z,22.50
2018-05-14T22:37:23.488Z,21.75
2018-05-14T22:39:55.069Z,21.25
2018-05-14T22:42:29.042Z,20.50
2018-05-14T22:45:08.116Z,20.50
2018-05-14T22:47:54.302Z,21.50
2018-05-14T22:50:27.319Z,19.00
2018-05-14T22:52:58.210Z,22.75
2018-05-14T22:55:47.421Z,21.50
2018-05-14T22:58:18.481Z,21.50
2018-05-14T23:00:50.996Z,20.25
2018-05-14T23:03:22.054Z,21.50
2018-05-14T23:05:55.893Z,22.25
2018-05-14T23:08:26.856Z,19.75
2018-05-14T23:10:57.479Z,21.00
2018-05-14T23:13:29.233Z,19.50
2018-05-14T23:16:02.229Z,22.25
2018-05-14T23:18:34.256Z,22.50
2018-05-14T23:21:06.580Z,23.75
2018-05-14T23:23:38.454Z,21.75
2018-05-14T23:26:09.259Z,19.50
2018-05-14T23:28:46.619Z,20.50
2018-05-14T23:31:17.981Z,20.75
2018-05-14T23:33:53.569Z,21.50
2018-05-14T23:36:24.585Z,22.00
2018-05-14T23:38:59.536Z,21.00
2018-05-14T23:41:31.858Z,21.25
2018-05-14T23:44:04.291Z,22.00
2018-05-14T23:46:38.240Z,20.50
2018-05-14T23:49:11.133Z,21.00
2018-05-14T23:51:44.375Z,17.75
2018-05-14T23:54:16.912Z,19.00
2018-05-14T23:56:51.906Z,20.00
2018-05-14T23:59:22.930Z,19.00
